Latest Weather Observations for Albany Airport

IDW60801

Issued at 1:03 am WST Thursday 28 May 2020 (issued every 10 minutes, with the page automatically refreshed every 10 minutes)

About weather observations | Map of weather stations | Latest weather observations for WA | Other Formats
Station Details ID: 009999 Name: ALBANY AIRPORT Lat: -34.94 Lon: 117.82 Height: 68.4 m
Data from the previous 72 hours. | See also: Recent months at Albany Airport
Date/Time
WST
Temp
°C
App
Temp
°C
Dew
Point
°C
Rel
Hum
%
Delta-T
°C
Wind Press
QNH
hPa
Press
MSL
hPa
Rain since
9am
mm
Dir  Spd
km/h
Gust
km/h
Spd
kts
Gust
kts
28/01:00am 13.3 11.4 13.1 99 0.1 NW 15 17 8 9 1015.3 1015.3 4.4
28/12:58am 13.3 11.4 13.1 99 0.1 NW 15 17 8 9 1015.3 1015.3 4.4
28/12:55am 13.3 11.4 13.1 99 0.1 NW 15 19 8 10 1015.3 1015.3 4.4
28/12:30am 13.5 11.7 13.3 99 0.1 WNW 15 19 8 10 1015.5 1015.5 4.2
28/12:26am 13.6 11.8 13.4 99 0.1 WNW 15 20 8 11 1015.5 1015.5 4.2
28/12:18am 13.6 11.8 13.4 99 0.1 WNW 15 20 8 11 1015.5 1015.5 4.2
28/12:00am 13.5 11.3 13.3 99 0.1 WNW 17 22 9 12 1015.4 1015.4 4.2
 
Date/Time
WST
Temp
°C
App
Temp
°C
Dew
Point
°C
Rel
Hum
%
Delta-T
°C
Wind Press
QNH
hPa
Press
MSL
hPa
Rain since
9am
mm
Dir  Spd
km/h
Gust
km/h
Spd
kts
Gust
kts
27/11:39pm 13.5 12.0 13.2 98 0.2 NW 13 20 7 11 1015.5 1015.5 3.8
27/11:30pm 13.6 12.2 13.3 98 0.2 NW 13 17 7 9 1015.4 1015.4 3.8
27/11:26pm 13.6 12.2 13.3 98 0.2 NW 13 17 7 9 1015.4 1015.4 3.6
27/11:06pm 13.5 11.7 13.2 98 0.2 NW 15 19 8 10 1015.5 1015.5 3.6
27/11:00pm 13.4 11.5 13.1 98 0.2 NW 15 19 8 10 1015.4 1015.4 3.6
27/10:36pm 13.4 11.5 13.1 98 0.2 NW 15 19 8 10 1015.5 1015.5 3.4
27/10:30pm 13.4 11.9 13.1 98 0.2 NW 13 17 7 9 1015.5 1015.5 3.4
27/10:20pm 13.3 11.8 13.0 98 0.2 NW 13 15 7 8 1015.5 1015.5 3.4
27/10:04pm 13.5 12.4 13.2 98 0.2 NW 11 13 6 7 1015.5 1015.5 3.4
27/10:00pm 13.5 12.4 13.2 98 0.2 NW 11 13 6 7 1015.5 1015.5 3.4
27/09:30pm 13.8 11.2 13.3 97 0.3 WNW 19 26 10 14 1015.8 1015.8 3.0
27/09:00pm 13.9 12.5 13.3 96 0.3 W 13 17 7 9 1015.6 1015.6 2.6
27/08:33pm 14.0 11.8 13.2 95 0.4 SW 17 24 9 13 1015.6 1015.6 1.6
27/08:30pm 14.1 11.8 13.1 94 0.6 SW 17 26 9 14 1015.6 1015.6 1.2
27/08:10pm 14.4 11.4 12.6 89 1.0 NW 20 35 11 19 1014.9 1014.9 0.0
27/08:00pm 14.7 10.9 12.4 86 1.3 NW 24 35 13 19 1014.8 1014.8 0.0
27/07:30pm 14.9 10.9 11.9 82 1.6 NW 24 32 13 17 1014.6 1014.5 0.0
27/07:00pm 15.0 11.0 11.8 81 1.7 NW 24 33 13 18 1014.4 1014.3 0.0
27/06:30pm 15.0 10.6 11.8 81 1.7 NW 26 37 14 20 1014.3 1014.2 0.0
27/06:00pm 14.9 10.5 11.7 81 1.7 NW 26 33 14 18 1014.0 1013.9 0.0
27/05:30pm 15.3 10.5 11.5 78 2.0 NW 28 39 15 21 1014.0 1013.9 0.0
27/05:00pm 15.4 10.6 11.6 78 2.1 NW 28 43 15 23 1013.8 1013.7 0.0
27/04:30pm 16.5 9.6 11.6 73 2.7 NW 39 54 21 29 1013.8 1013.7 0.0
27/04:03pm 16.7 10.9 11.4 71 2.9 WNW 33 52 18 28 1013.8 1013.7 0.0
27/04:00pm 16.9 10.3 11.4 70 3.0 WNW 37 52 20 28 1013.7 1013.6 0.0
27/03:43pm 17.7 11.3 10.6 63 3.8 WNW 35 54 19 29 1013.7 1013.6 0.0
27/03:30pm 18.1 11.6 10.2 60 4.2 WNW 35 48 19 26 1013.5 1013.4 0.0
27/03:05pm 18.4 11.3 9.7 57 4.6 WNW 37 56 20 30 1013.3 1013.2 0.0
27/03:00pm 18.6 11.6 9.9 57 4.6 WNW 37 50 20 27 1013.3 1013.2 0.0
27/02:33pm 19.2 12.4 9.4 53 5.2 NW 35 54 19 29 1012.9 1012.8 0.0
27/02:30pm 19.2 12.8 9.4 53 5.2 NW 33 48 18 26 1012.9 1012.8 0.0
27/02:00pm 19.1 12.1 9.9 55 4.9 WNW 37 50 20 27 1012.8 1012.7 0.0
27/01:30pm 18.6 11.9 10.9 61 4.2 NW 37 54 20 29 1013.4 1013.3 0.0
27/01:00pm 18.2 11.7 10.3 60 4.2 WNW 35 48 19 26 1013.8 1013.7 0.0
27/12:30pm 18.0 11.9 10.4 61 4.1 NW 33 48 18 26 1014.0 1013.9 0.0
27/12:00pm 17.7 10.4 10.1 61 4.0 WNW 39 50 21 27 1014.4 1014.3 0.0
27/11:40am 17.9 11.7 9.5 58 4.4 WNW 32 52 17 28 1014.6 1014.5 0.0
27/11:30am 18.4 11.6 10.5 60 4.3 WNW 37 50 20 27 1014.7 1014.7 0.0
27/11:00am 17.6 12.1 10.7 64 3.7 NW 30 41 16 22 1015.2 1015.2 0.0
27/10:30am 16.4 10.3 10.5 68 3.1 NW 33 50 18 27 1015.9 1015.9 0.0
27/10:00am 16.5 10.8 11.0 70 3.0 NW 32 46 17 25 1016.1 1016.1 0.0
27/09:54am 16.0 10.8 10.3 69 3.0 NW 28 46 15 25 1016.0 1016.0 0.0
27/09:30am 15.3 10.6 10.7 74 2.4 NW 26 41 14 22 1016.1 1016.1 0.0
27/09:00am 14.2 8.9 9.8 75 2.3 NNW 28 39 15 21 1016.4 1016.4 0.0
27/08:30am 13.5 8.9 9.6 77 2.0 NW 24 35 13 19 1016.5 1016.5 0.0
27/08:00am 12.7 8.1 9.5 81 1.6 NNW 24 33 13 18 1016.7 1016.7 0.0
27/07:30am 12.6 8.0 9.8 83 1.4 NNW 24 33 13 18 1016.5 1016.5 0.0
27/07:00am 12.5 8.4 10.2 86 1.2 NNW 22 30 12 16 1016.5 1016.5 0.0
27/06:30am 12.3 8.5 9.9 85 1.2 NW 20 28 11 15 1016.7 1016.7 0.0
27/06:00am 12.3 7.7 9.7 84 1.3 NNW 24 33 13 18 1016.3 1016.3 0.0
27/05:30am 11.9 7.6 9.5 85 1.2 NNW 22 33 12 18 1016.3 1016.3 0.0
27/05:00am 12.0 7.0 9.6 85 1.2 NNW 26 33 14 18 1016.4 1016.4 0.0
27/04:30am 11.3 6.9 9.0 86 1.1 NNW 22 30 12 16 1016.7 1016.7 0.0
27/04:00am 11.1 6.6 8.7 85 1.2 NNW 22 30 12 16 1016.8 1016.8 0.0
27/03:30am 11.4 6.6 8.8 84 1.3 NW 24 32 13 17 1016.9 1016.9 0.0
27/03:00am 11.6 6.8 8.8 83 1.4 NNW 24 33 13 18 1017.0 1017.0 0.0
27/02:30am 11.7 7.2 8.7 82 1.5 NNW 22 30 12 16 1017.1 1017.1 0.0
27/02:00am 12.0 8.0 9.0 82 1.5 NW 20 26 11 14 1017.6 1017.6 0.0
27/01:30am 12.2 8.2 9.0 81 1.6 NW 20 28 11 15 1017.5 1017.5 0.0
27/01:00am 12.2 8.8 9.2 82 1.5 NW 17 24 9 13 1017.7 1017.7 0.0
27/12:30am 11.4 8.0 9.0 85 1.2 NNW 17 22 9 12 1018.0 1018.0 0.0
27/12:00am 11.8 7.9 9.4 85 1.2 NW 20 28 11 15 1018.1 1018.1 0.0
 
Date/Time
WST
Temp
°C
App
Temp
°C
Dew
Point
°C
Rel
Hum
%
Delta-T
°C
Wind Press
QNH
hPa
Press
MSL
hPa
Rain since
9am
mm
Dir  Spd
km/h
Gust
km/h
Spd
kts
Gust
kts
26/11:30pm 11.7 7.8 9.3 85 1.2 NNW 20 28 11 15 1018.1 1018.1 0.0
26/11:00pm 11.0 7.6 9.1 88 0.9 NNW 17 24 9 13 1018.5 1018.5 0.0
26/10:30pm 10.8 7.3 8.7 87 1.0 NNW 17 24 9 13 1018.6 1018.6 0.0
26/10:00pm 11.2 7.4 8.9 86 1.1 NNW 19 26 10 14 1018.9 1018.9 0.0
26/09:30pm 11.4 7.6 9.1 86 1.2 NW 19 24 10 13 1019.0 1019.0 0.0
26/09:00pm 11.2 8.2 9.3 88 1.0 NW 15 19 8 10 1019.0 1019.0 0.0
26/08:30pm 11.9 8.6 9.5 85 1.2 NW 17 24 9 13 1018.9 1018.9 0.0
26/08:00pm 11.8 8.5 9.4 85 1.2 NW 17 20 9 11 1018.8 1018.8 0.0
26/07:30pm 11.0 8.3 8.9 87 1.0 NW 13 17 7 9 1018.7 1018.7 0.0
26/07:00pm 11.6 8.3 9.5 87 1.1 N 17 24 9 13 1018.4 1018.4 0.0
26/06:30pm 12.1 9.2 9.7 85 1.2 NNW 15 19 8 10 1018.5 1018.5 0.0
26/06:00pm 12.9 10.0 9.5 80 1.7 NNW 15 19 8 10 1018.4 1018.4 0.0
26/05:30pm 13.4 10.1 9.5 77 2.0 NW 17 22 9 12 1018.2 1018.2 0.0
26/05:00pm 13.6 11.5 9.6 77 2.1 WNW 11 15 6 8 1018.2 1018.2 0.0
26/04:30pm 14.2 10.8 9.0 71 2.6 W 17 22 9 12 1017.9 1017.9 0.0
26/04:00pm 15.1 11.7 9.2 68 3.0 W 17 24 9 13 1017.6 1017.6 0.0
26/03:30pm 14.5 9.9 9.5 72 2.6 WSW 24 35 13 19 1017.5 1017.5 0.0
26/03:00pm 15.2 11.2 8.4 64 3.4 W 19 24 10 13 1017.2 1017.2 0.0
26/02:30pm 15.3 11.2 7.8 61 3.8 SW 19 26 10 14 1017.1 1017.1 0.0
26/02:00pm 16.2 11.7 8.7 61 3.8 WSW 22 28 12 15 1017.0 1017.0 0.0
26/01:30pm 16.7 12.4 7.9 56 4.5 WSW 20 28 11 15 1017.0 1017.0 0.0
26/01:00pm 15.9 10.8 7.7 58 4.1 WSW 24 33 13 18 1017.1 1017.1 0.0
26/12:30pm 15.8 10.9 8.3 61 3.8 WSW 24 33 13 18 1017.1 1017.1 0.0
26/12:00pm 14.6 10.5 8.8 68 2.9 WSW 20 30 11 16 1017.3 1017.3 0.0
26/11:30am 13.3 6.9 8.6 73 2.4 SW 32 46 17 25 1017.6 1017.6 0.0
26/11:00am 15.1 9.4 6.7 57 4.1 WSW 26 37 14 20 1017.2 1017.2 0.0
26/10:30am 14.6 10.5 8.8 68 3.0 W 20 26 11 14 1017.3 1017.3 0.0
26/10:00am 13.2 8.2 8.1 71 2.5 W 24 41 13 22 1017.1 1017.1 0.0
26/09:30am 12.6 10.0 9.4 81 1.6 WNW 13 17 7 9 1017.0 1017.0 0.0
26/09:00am 12.2 9.6 9.2 82 1.5 W 13 19 7 10 1016.9 1016.9 13.8
26/08:30am 12.2 8.3 8.5 78 1.8 WSW 19 32 10 17 1016.6 1016.6 13.8
26/08:00am 11.1 7.2 8.7 85 1.2 W 19 26 10 14 1016.0 1016.0 13.8
26/07:30am 11.5 6.7 7.2 75 2.1 WSW 22 32 12 17 1015.7 1015.7 13.8
26/07:00am 11.3 6.8 7.0 75 2.1 WSW 20 30 11 16 1015.2 1015.2 13.6
26/06:30am 11.3 5.7 7.2 76 2.0 W 26 35 14 19 1014.7 1014.7 13.6
26/06:00am 11.3 6.0 6.8 74 2.1 WSW 24 35 13 19 1014.4 1014.3 13.6
26/05:30am 10.8 7.1 7.9 82 1.4 WSW 17 28 9 15 1014.2 1014.1 13.6
26/05:00am 11.0 7.1 6.9 76 2.0 SW 17 30 9 16 1013.6 1013.5 13.6
26/04:30am 10.9 5.7 7.2 78 1.8 WSW 24 39 13 21 1013.4 1013.3 13.6
26/04:00am 11.0 6.3 6.2 72 2.3 WSW 20 30 11 16 1013.0 1012.9 13.6
26/03:30am 11.2 5.1 6.7 74 2.1 WSW 28 39 15 21 1012.9 1012.8 13.6
26/03:00am 11.1 5.7 6.3 72 2.3 WSW 24 35 13 19 1012.6 1012.5 13.6
26/02:30am 11.3 5.8 5.8 69 2.6 WSW 24 33 13 18 1012.6 1012.5 13.6
26/02:00am 11.3 5.2 6.4 72 2.3 SW 28 41 15 22 1012.2 1012.1 13.6
26/01:30am 10.9 5.2 5.0 67 2.7 WSW 24 32 13 17 1011.7 1011.6 13.6
26/01:00am 10.8 4.3 4.5 65 2.8 SW 28 41 15 22 1011.3 1011.2 13.6
26/12:47am 11.0 4.5 4.9 66 2.8 WSW 28 50 15 27 1011.2 1011.1 13.6
26/12:30am 10.7 3.9 5.0 68 2.6 WSW 30 39 16 21 1011.0 1010.9 13.6
26/12:00am 10.2 4.1 4.8 69 2.4 WSW 26 37 14 20 1010.6 1010.5 13.6
 
Date/Time
WST
Temp
°C
App
Temp
°C
Dew
Point
°C
Rel
Hum
%
Delta-T
°C
Wind Press
QNH
hPa
Press
MSL
hPa
Rain since
9am
mm
Dir  Spd
km/h
Gust
km/h
Spd
kts
Gust
kts
25/11:30pm 10.9 3.6 4.4 64 2.9 SW 32 44 17 24 1010.4 1010.3 13.6
25/11:14pm 11.3 3.7 2.9 56 3.7 WSW 32 50 17 27 1010.0 1009.9 13.6
25/11:00pm 10.7 4.4 3.5 61 3.2 WSW 26 37 14 20 1010.0 1009.9 13.6
25/10:38pm 10.7 3.0 2.3 56 3.6 WSW 32 50 17 27 1009.8 1009.7 13.6
25/10:30pm 11.1 2.1 2.4 55 3.7 WSW 39 54 21 29 1009.7 1009.6 13.6
25/10:23pm 11.1 3.6 3.4 59 3.4 WSW 32 54 17 29 1009.6 1009.5 13.6
25/10:00pm 10.9 3.7 4.8 66 2.8 WSW 32 46 17 25 1009.3 1009.2 13.6
25/09:37pm 10.8 3.7 3.8 62 3.1 WSW 30 50 16 27 1009.0 1008.9 13.6
25/09:30pm 10.9 3.9 4.1 63 3.0 WSW 30 41 16 22 1008.9 1008.8 13.6
25/09:00pm 10.1 3.6 4.5 68 2.5 WSW 28 44 15 24 1008.3 1008.2 13.6
25/08:30pm 9.6 5.0 6.5 81 1.4 WSW 20 32 11 17 1007.7 1007.7 13.6
25/08:00pm 10.1 4.0 6.4 78 1.7 WSW 28 43 15 23 1007.1 1007.1 13.2
25/07:40pm 10.2 4.1 6.4 77 1.8 WSW 28 52 15 28 1006.7 1006.7 13.2
25/07:30pm 10.6 5.3 6.6 76 1.9 WSW 24 35 13 19 1006.4 1006.4 13.0
25/07:13pm 10.2 3.2 6.9 80 1.6 WSW 33 50 18 27 1006.1 1006.1 13.0
25/07:03pm 10.2 2.8 6.9 80 1.6 WSW 35 56 19 30 1005.9 1005.9 13.0
25/07:00pm 10.0 2.9 6.5 79 1.6 WSW 33 46 18 25 1005.8 1005.8 13.0
25/06:57pm 10.1 3.0 6.4 78 1.7 WSW 33 44 18 24 1005.7 1005.7 13.0
25/06:33pm 10.6 4.6 6.9 78 1.8 WSW 28 46 15 25 1004.9 1004.9 12.8
25/06:30pm 10.3 4.2 6.6 78 1.7 WSW 28 41 15 22 1004.9 1004.9 12.8
25/06:02pm 9.3 3.5 8.1 92 0.6 W 28 46 15 25 1003.9 1003.9 12.8
25/06:00pm 9.3 3.2 8.1 92 0.6 WNW 30 46 16 25 1003.9 1003.9 12.8
25/05:56pm 9.2 3.4 8.1 93 0.5 WNW 28 46 15 25 1003.8 1003.8 12.8
25/05:41pm 9.2 4.3 8.3 94 0.4 WNW 24 33 13 18 1003.4 1003.4 12.4
25/05:30pm 9.0 3.2 8.1 94 0.4 NW 28 35 15 19 1002.8 1002.8 12.2
25/05:00pm 9.2 4.9 7.8 91 0.7 W 20 37 11 20 1002.7 1002.7 10.6
25/04:54pm 9.4 5.7 8.0 91 0.7 WSW 17 20 9 11 1002.8 1002.8 10.4
25/04:30pm 9.7 5.1 8.0 89 0.8 W 22 28 12 15 1002.1 1002.0 9.4
25/04:00pm 10.4 4.7 8.5 88 0.9 W 28 39 15 21 1001.3 1001.2 9.4
25/03:56pm 10.4 5.2 8.7 89 0.8 WNW 26 35 14 19 1001.2 1001.1 9.4
25/03:36pm 10.5 4.1 8.6 88 0.9 W 32 44 17 24 1000.9 1000.8 9.0
25/03:30pm 10.6 4.2 8.4 86 1.1 W 32 44 17 24 1000.6 1000.5 8.8
25/03:06pm 9.9 4.2 8.2 89 0.8 WNW 28 39 15 21 1000.0 999.9 8.0
25/03:00pm 10.1 4.1 8.5 90 0.8 W 30 44 16 24 999.8 999.7 8.0
25/02:42pm 9.4 2.2 7.7 89 0.8 W 35 70 19 38 999.9 999.8 7.6
25/02:39pm 9.9 3.8 8.3 90 0.8 W 30 50 16 27 999.9 999.8 7.6
25/02:30pm 10.2 3.8 8.5 89 0.8 W 32 44 17 24 999.5 999.4 7.0
25/02:00pm 9.9 4.2 8.3 90 0.8 WNW 28 35 15 19 999.1 999.0 6.0
25/01:30pm 9.1 3.6 7.7 91 0.7 WNW 26 43 14 23 998.4 998.3 5.6
25/01:00pm 9.6 2.5 8.2 91 0.7 WNW 35 46 19 25 998.4 998.3 4.6
25/12:30pm 9.4 1.6 8.3 93 0.5 WNW 39 54 21 29 997.6 997.5 4.0
25/12:13pm 10.0 4.0 8.8 92 0.6 WNW 30 41 16 22 997.4 997.3 2.6
25/12:00pm 10.0 4.0 8.8 92 0.6 WNW 30 39 16 21 997.0 996.9 2.2
25/11:49am 9.9 2.5 8.5 91 0.7 W 37 65 20 35 997.1 997.0 1.8
25/11:47am 9.8 2.4 8.2 90 0.8 W 37 65 20 35 997.1 997.0 1.6
25/11:36am 10.0 1.9 8.6 91 0.7 W 41 59 22 32 996.6 996.5 1.2
25/11:30am 10.1 1.4 8.5 90 0.8 WNW 44 59 24 32 996.5 996.4 1.0
25/11:24am 10.5 2.8 8.8 89 0.8 WNW 39 59 21 32 996.5 996.4 0.6
25/11:11am 10.5 2.1 8.8 89 0.8 WNW 43 61 23 33 995.8 995.7 0.4
25/11:00am 10.9 3.0 9.2 89 0.9 WNW 41 52 22 28 995.7 995.6 0.4
25/10:30am 11.3 1.9 8.9 85 1.2 WNW 48 65 26 35 994.8 994.7 0.2
25/10:00am 13.6 4.2 8.9 73 2.4 WNW 48 67 26 36 994.0 993.9 0.2
25/09:30am 13.5 3.4 9.0 74 2.3 WNW 52 78 28 42 992.7 992.7 0.2
25/09:09am 13.1 4.1 10.3 83 1.5 WNW 48 65 26 35 992.2 992.2 0.0
25/09:00am 14.1 4.5 9.3 73 2.5 WNW 50 74 27 40 991.9 991.9 7.0
25/08:30am 14.1 5.0 9.7 75 2.3 WNW 48 69 26 37 991.1 991.1 7.0
25/08:00am 13.4 4.9 10.6 83 1.5 WNW 46 72 25 39 990.2 990.1 7.0
25/07:41am 13.5 7.0 11.7 89 1.0 WNW 37 56 20 30 989.6 989.5 7.0
25/07:30am 13.9 5.5 11.2 84 1.4 WNW 46 91 25 49 989.3 989.2 7.0
25/07:22am 13.9 5.5 11.1 83 1.5 WNW 46 91 25 49 988.7 988.6 7.0
25/07:15am 14.1 6.4 11.4 84 1.4 WNW 43 67 23 36 988.6 988.5 7.0
25/07:00am 14.8 6.4 11.0 78 2.0 WNW 46 67 25 36 987.7 987.6 7.0
25/06:42am 14.5 6.8 12.2 86 1.3 WNW 44 65 24 35 987.2 987.1 7.0
25/06:30am 14.5 6.9 12.5 88 1.1 WNW 44 74 24 40 986.6 986.5 7.0
25/06:19am 15.1 6.8 12.6 85 1.4 WNW 48 70 26 38 986.3 986.2 6.8
25/06:00am 16.1 6.6 12.3 78 2.1 WNW 54 76 29 41 985.0 984.9 6.8
25/05:46am 16.1 8.6 12.8 81 1.8 NW 44 67 24 36 984.5 984.4 6.8
25/05:30am 15.6 8.3 13.4 87 1.2 NW 44 63 24 34 983.9 983.8 6.8
25/05:22am 15.9 8.2 13.4 85 1.4 NW 46 69 25 37 983.6 983.5 6.2
25/05:00am 16.3 9.5 13.2 82 1.8 NNW 41 67 22 36 982.8 982.7 6.2
25/04:30am 16.9 9.3 12.4 75 2.5 NNW 44 72 24 39 982.2 982.1 6.2
25/04:06am 15.6 7.5 12.2 80 1.9 N 46 65 25 35 982.0 981.9 6.2
25/04:00am 15.8 6.5 12.0 78 2.1 N 52 67 28 36 982.0 981.9 6.2
25/03:30am 16.0 6.8 11.0 72 2.7 N 50 74 27 40 982.4 982.3 6.2
25/03:00am 15.6 6.3 10.6 72 2.7 N 50 72 27 39 982.8 982.7 6.2
25/02:30am 15.1 4.4 10.3 73 2.5 N 57 78 31 42 983.6 983.5 6.2
25/02:00am 14.8 5.4 10.0 73 2.5 N 50 70 27 38 985.0 984.9 6.2
25/01:30am 14.1 5.0 9.7 75 2.3 N 48 72 26 39 986.5 986.4 6.2

Other formats

Comma delimited format used in spreadsheet applications
http://www.bom.gov.au/fwo/IDW60801/IDW60801.94802.axf

JavaScript Object Notation format (JSON) in row-major order
http://www.bom.gov.au/fwo/IDW60801/IDW60801.94802.json

Data quality

Most of these data are generated automatically and are frequently updated. Quality checks on data are not normally performed. It is possible for incorrect values to appear. Refer to information at About Latest Weather Observations and please check the disclaimer before using these data.